Time;durP1;ratioP1;P1;durP2;ratioP2;P2;SDS_P1;SDS_P2;PMS_P1;PMS_P2;Temp;Humidity;BMP_temperature;BMP_pressure;BME280_temperature;BME280_humidity;BME280_pressure;Samples;Min_cycle;Max_cycle;Signal;HPM_P1;HPM_P2
2023/07/16 00:00:37;;;;;;;2.38;1.25;;;22.30;99.70;;;22.77;98.00;100423.63;5222777;28;20418;-47
2023/07/16 00:03:09;;;;;;;1.85;0.93;;;22.30;99.80;;;22.74;98.40;100423.66;5222435;28;20049;-47
2023/07/16 00:05:42;;;;;;;1.77;0.77;;;22.30;99.80;;;22.73;98.13;100432.53;5223038;28;20103;-48
2023/07/16 00:08:14;;;;;;;2.47;0.73;;;22.20;99.80;;;22.68;97.70;100421.13;5222911;28;20500;-48
2023/07/16 00:10:48;;;;;;;1.65;0.82;;;22.20;99.70;;;22.64;97.27;100422.13;5223136;28;20044;-48
2023/07/16 00:13:23;;;;;;;2.92;0.90;;;22.20;99.60;;;22.59;97.74;100434.63;5222875;28;20044;-48
2023/07/16 00:15:56;;;;;;;1.48;1.00;;;22.10;99.70;;;22.55;97.64;100427.59;5222662;28;20045;-47
2023/07/16 00:18:28;;;;;;;1.77;0.93;;;22.10;99.70;;;22.52;97.92;100438.31;5222618;28;20048;-48
2023/07/16 00:21:01;;;;;;;2.47;1.00;;;22.10;99.70;;;22.47;98.18;100433.06;5222325;28;20141;-48
2023/07/16 00:23:36;;;;;;;1.45;0.77;;;22.00;99.80;;;22.43;98.31;100440.25;5222704;28;20045;-48
2023/07/16 00:26:10;;;;;;;1.60;0.73;;;22.00;99.90;;;22.39;98.42;100438.53;5222497;28;20548;-48
2023/07/16 00:28:42;;;;;;;2.15;1.00;;;21.90;99.90;;;22.35;98.87;100444.81;5222547;28;20037;-49
2023/07/16 00:31:16;;;;;;;1.48;0.75;;;21.90;99.90;;;22.33;98.84;100449.28;5222017;28;20568;-48
2023/07/16 00:33:48;;;;;;;2.03;0.80;;;21.90;99.90;;;22.29;99.18;100450.22;5222173;28;20052;-47
2023/07/16 00:36:20;;;;;;;2.03;1.20;;;21.80;99.90;;;22.27;99.35;100459.13;5238909;28;20383;-48
2023/07/16 00:38:53;;;;;;;2.00;0.90;;;21.80;99.90;;;22.23;99.68;100462.75;5222409;28;20055;-49
2023/07/16 00:41:27;;;;;;;0.75;0.75;;;21.80;99.90;;;22.19;99.99;100461.94;5222284;28;20045;-48
2023/07/16 00:43:59;;;;;;;1.15;0.77;;;21.70;99.90;;;22.16;99.91;100462.84;5222228;28;20095;-48
2023/07/16 00:46:32;;;;;;;1.08;0.75;;;21.70;99.90;;;22.12;100.00;100465.59;5222323;28;20037;-48
2023/07/16 00:49:04;;;;;;;1.38;0.90;;;21.70;99.90;;;22.08;100.00;100458.56;5223332;28;20068;-49
2023/07/16 00:51:37;;;;;;;1.58;0.70;;;21.60;99.90;;;22.03;100.00;100460.41;5222058;28;20049;-48
2023/07/16 00:54:10;;;;;;;1.15;0.82;;;21.60;99.90;;;21.99;100.00;100464.03;5221952;28;20407;-48
2023/07/16 00:56:44;;;;;;;1.23;0.90;;;21.60;99.90;;;21.95;100.00;100458.78;5222000;28;20498;-48
2023/07/16 00:59:17;;;;;;;2.25;0.90;;;21.50;99.90;;;21.94;100.00;100462.31;5221601;28;20548;-47
2023/07/16 01:01:49;;;;;;;0.70;0.70;;;21.50;99.90;;;21.91;100.00;100456.22;5221914;28;20106;-48
2023/07/16 01:04:22;;;;;;;0.90;0.73;;;21.50;99.90;;;21.90;100.00;100459.75;5221873;28;20049;-49
2023/07/16 01:07:02;;;;;;;1.73;1.20;;;21.50;99.90;;;21.86;100.00;100460.72;5221999;28;20052;-48
2023/07/16 01:09:43;;;;;;;1.52;1.02;;;21.40;99.90;;;21.81;100.00;100465.22;5213859;28;20410;-48
2023/07/16 01:12:18;;;;;;;1.30;0.80;;;21.40;99.90;;;21.78;100.00;100471.47;5221545;28;20048;-48
2023/07/16 01:14:52;;;;;;;1.48;0.95;;;21.30;99.90;;;21.77;100.00;100474.13;5221059;28;20045;-48
2023/07/16 01:17:25;;;;;;;1.17;0.90;;;21.30;99.90;;;21.72;100.00;100471.56;5221226;28;20175;-48
2023/07/16 01:19:57;;;;;;;1.20;0.90;;;21.30;99.90;;;21.70;100.00;100478.63;5221742;28;20056;-48
2023/07/16 01:22:50;;;;;;;1.10;0.88;;;21.30;99.90;;;21.67;100.00;100479.56;5221222;28;20077;-48
2023/07/16 01:25:46;;;;;;;1.23;0.80;;;21.30;99.90;;;21.64;100.00;100478.72;5221676;28;20048;-48
2023/07/16 01:29:10;;;;;;;2.05;1.10;;;21.20;99.90;;;21.60;100.00;100472.63;5221319;28;20415;-48
2023/07/16 01:31:43;;;;;;;0.93;0.70;;;21.20;99.90;;;21.56;100.00;100480.63;5214326;28;20041;-49
2023/07/16 01:34:16;;;;;;;2.90;0.85;;;21.10;99.90;;;21.54;100.00;100482.44;5222750;28;20048;-48
2023/07/16 01:36:49;;;;;;;1.38;0.70;;;21.10;99.90;;;21.52;100.00;100474.53;5221397;28;20037;-48
2023/07/16 01:39:22;;;;;;;1.85;1.00;;;21.10;99.90;;;21.51;100.00;100474.53;5221048;28;20044;-48
2023/07/16 01:41:54;;;;;;;1.67;0.88;;;21.10;99.90;;;21.47;100.00;100481.66;5221126;28;20136;-48
2023/07/16 01:44:28;;;;;;;1.63;0.80;;;21.10;99.90;;;21.44;100.00;100480.81;5221035;28;20056;-47
2023/07/16 01:47:13;;;;;;;1.90;0.80;;;21.10;99.90;;;21.40;100.00;100480.88;5221288;28;20127;-48
2023/07/16 01:49:48;;;;;;;1.20;0.73;;;21.00;99.90;;;21.38;100.00;100493.25;5214348;28;20507;-47
2023/07/16 01:52:20;;;;;;;2.00;0.73;;;21.00;99.90;;;21.36;100.00;100495.06;5220877;28;20514;-48
2023/07/16 01:54:53;;;;;;;3.65;1.05;;;21.00;99.90;;;21.33;100.00;100491.59;5220991;28;20115;-48
2023/07/16 01:57:30;;;;;;;;;;;20.90;99.90;;;21.30;100.00;100495.16;5221297;28;20083;-49
2023/07/16 02:00:09;;;;;;;1.73;0.80;;;20.90;99.90;;;21.27;100.00;100494.28;5221131;28;20015;-49
2023/07/16 02:02:51;;;;;;;3.03;1.00;;;20.90;99.90;;;21.21;100.00;100495.25;5222532;28;20057;-49
2023/07/16 02:05:23;;;;;;;2.28;0.95;;;20.80;99.90;;;21.18;100.00;100497.06;5222337;28;20041;-47
2023/07/16 02:07:56;;;;;;;1.73;1.10;;;20.80;99.90;;;21.14;100.00;100504.19;5221044;28;20037;-50
2023/07/16 02:10:28;;;;;;;2.15;1.20;;;20.80;99.90;;;21.11;100.00;100507.72;5220791;28;20418;-50
2023/07/16 02:13:01;;;;;;;3.80;1.00;;;20.70;99.90;;;21.09;100.00;100503.34;5220950;28;20041;-48
2023/07/16 02:15:34;;;;;;;2.00;0.90;;;20.70;99.90;;;21.08;100.00;100509.56;5220691;28;20047;-48
2023/07/16 02:18:09;;;;;;;1.58;0.82;;;20.70;99.90;;;21.03;100.00;100506.97;5220854;28;20052;-48
2023/07/16 02:20:41;;;;;;;1.00;0.90;;;20.60;99.90;;;21.02;100.00;100515.81;5220797;28;20496;-46
2023/07/16 02:23:14;;;;;;;2.22;0.90;;;20.60;99.90;;;21.03;100.00;100516.69;5220804;28;20101;-46
2023/07/16 02:25:47;;;;;;;1.75;0.70;;;20.60;99.90;;;21.02;100.00;100520.22;5221432;28;20048;-46
2023/07/16 02:28:22;;;;;;;2.58;1.10;;;20.60;99.90;;;21.02;100.00;100525.53;5224601;28;20047;-46
2023/07/16 02:30:56;;;;;;;3.15;1.10;;;20.60;99.90;;;20.99;100.00;100520.25;5226163;28;20049;-46
2023/07/16 02:33:31;;;;;;;2.30;0.90;;;20.60;99.90;;;20.97;100.00;100520.28;5224942;28;20529;-47
2023/07/16 02:36:06;;;;;;;2.20;1.00;;;20.60;99.90;;;20.96;100.00;100536.19;5225129;28;20051;-47
2023/07/16 02:38:38;;;;;;;1.25;0.90;;;20.60;99.90;;;20.97;100.00;100537.94;5225606;28;20124;-47
2023/07/16 02:41:10;;;;;;;1.70;0.70;;;20.60;99.90;;;20.94;100.00;100543.31;5224326;28;20091;-46
2023/07/16 02:43:43;;;;;;;1.33;0.98;;;20.60;99.90;;;20.92;100.00;100550.38;5216910;28;20138;-47
2023/07/16 02:46:17;;;;;;;3.17;1.00;;;20.50;99.90;;;20.89;100.00;100555.72;5224593;28;20057;-47
2023/07/16 02:48:49;;;;;;;2.03;1.05;;;20.50;99.90;;;20.85;100.00;100552.22;5224587;28;20049;-47
2023/07/16 02:51:21;;;;;;;2.80;1.10;;;20.50;99.90;;;20.80;100.00;100552.28;5224007;28;20402;-47
2023/07/16 02:53:57;;;;;;;2.40;1.10;;;20.40;99.90;;;20.79;100.00;100555.81;5224491;28;20544;-47
2023/07/16 02:56:29;;;;;;;2.25;1.35;;;20.50;99.90;;;20.78;100.00;100567.28;5224083;28;20410;-46
2023/07/16 02:59:01;;;;;;;2.13;0.90;;;20.40;99.90;;;20.77;100.00;100568.19;5224679;28;20041;-46
2023/07/16 03:01:35;;;;;;;1.40;0.80;;;20.40;99.90;;;20.76;100.00;100568.22;5223755;28;20494;-47
2023/07/16 03:04:08;;;;;;;2.70;1.10;;;20.40;99.90;;;20.75;100.00;100570.00;5224516;28;20036;-47
2023/07/16 03:06:40;;;;;;;2.78;1.00;;;20.40;99.90;;;20.76;100.00;100582.34;5223921;28;20056;-46
2023/07/16 03:09:12;;;;;;;3.08;1.13;;;20.40;99.90;;;20.74;100.00;100578.84;5224030;28;20059;-47
2023/07/16 03:11:45;;;;;;;2.83;1.13;;;20.40;99.90;;;20.74;99.89;100578.84;5216006;28;20182;-47
2023/07/16 03:14:17;;;;;;;4.03;1.02;;;20.40;99.90;;;20.74;99.81;100583.25;5223768;28;20060;-47
2023/07/16 03:16:51;;;;;;;2.28;1.20;;;20.40;99.90;;;20.71;99.81;100583.28;5224151;28;20055;-47
2023/07/16 03:19:23;;;;;;;2.80;1.10;;;20.30;99.90;;;20.69;99.70;100585.06;5240334;28;20415;-47
2023/07/16 03:21:59;;;;;;;1.83;0.90;;;20.30;99.90;;;20.68;99.83;100604.50;5223745;28;20139;-47
2023/07/16 03:24:32;;;;;;;2.03;0.90;;;20.30;99.90;;;20.64;99.89;100605.41;5223836;28;20068;-47
2023/07/16 03:27:05;;;;;;;2.78;1.10;;;20.30;99.90;;;20.63;99.68;100609.84;5224066;28;20095;-47
2023/07/16 03:29:38;;;;;;;3.13;1.10;;;20.30;99.90;;;20.62;99.58;100609.84;5223853;28;20580;-47
2023/07/16 03:32:13;;;;;;;3.13;1.02;;;20.30;99.90;;;20.63;99.39;100616.91;5222227;28;20041;-47
2023/07/16 03:34:45;;;;;;;2.05;1.00;;;20.30;99.90;;;20.61;99.32;100619.56;5222716;28;20056;-46
2023/07/16 03:37:18;;;;;;;1.88;1.00;;;20.20;99.90;;;20.58;99.10;100624.88;5222090;28;20497;-47
2023/07/16 03:39:53;;;;;;;2.28;0.88;;;20.20;99.90;;;20.58;99.27;100635.47;5228827;28;20049;-47
2023/07/16 03:42:25;;;;;;;2.80;1.00;;;20.20;99.90;;;20.59;99.07;100637.22;5231288;28;20506;-47
2023/07/16 03:44:58;;;;;;;2.50;1.00;;;20.20;99.90;;;20.57;99.01;100637.25;5234571;28;20056;-47
2023/07/16 03:47:32;;;;;;;2.72;1.02;;;20.20;99.90;;;20.55;99.30;100639.03;5222578;28;20577;-47
2023/07/16 03:50:09;;;;;;;3.30;1.10;;;20.20;99.90;;;20.51;99.30;100634.66;5234000;28;20128;-47
2023/07/16 03:52:41;;;;;;;1.48;0.77;;;20.20;99.90;;;20.51;99.47;100639.06;5222681;28;20107;-47
2023/07/16 03:55:13;;;;;;;3.42;1.10;;;20.10;99.90;;;20.49;99.38;100632.91;5234308;28;20253;-47
2023/07/16 03:57:46;;;;;;;1.40;0.90;;;20.20;99.90;;;20.48;99.24;100634.69;5222455;28;20045;-47
2023/07/16 04:00:20;;;;;;;3.05;1.20;;;20.10;99.90;;;20.47;99.11;100635.56;5222261;28;20579;-47
2023/07/16 04:02:57;;;;;;;2.92;1.10;;;20.10;99.90;;;20.46;98.89;100641.75;5220898;28;20472;-47
2023/07/16 04:05:29;;;;;;;3.33;1.10;;;20.10;99.90;;;20.41;98.89;100635.59;5219840;28;20048;-46
2023/07/16 04:08:02;;;;;;;3.08;1.10;;;20.10;99.90;;;20.42;99.03;100644.41;5222168;28;20132;-47
2023/07/16 04:10:34;;;;;;;3.25;1.00;;;20.00;99.90;;;20.38;99.22;100643.53;5221635;28;20044;-47
2023/07/16 04:13:06;;;;;;;1.98;1.25;;;20.00;99.90;;;20.39;99.22;100644.41;5233552;28;20430;-47
2023/07/16 04:15:39;;;;;;;4.28;1.38;;;20.00;99.90;;;20.37;99.28;100651.50;5221867;28;20040;-47
2023/07/16 04:18:12;;;;;;;1.40;0.90;;;20.00;99.90;;;20.33;99.55;100654.16;5222216;28;20033;-47
2023/07/16 04:20:45;;;;;;;3.40;1.00;;;20.00;99.90;;;20.33;99.78;100654.16;5221813;28;20056;-47
2023/07/16 04:23:17;;;;;;;2.28;1.15;;;20.00;99.90;;;20.31;99.93;100663.88;5222466;28;20041;-46
2023/07/16 04:25:54;;;;;;;1.88;0.73;;;20.00;99.90;;;20.31;100.00;100663.88;5222469;28;20256;-47
2023/07/16 04:28:26;;;;;;;2.65;1.08;;;20.00;99.90;;;20.31;99.78;100661.25;5221999;28;20136;-47
2023/07/16 04:30:58;;;;;;;3.60;1.33;;;20.00;99.90;;;20.34;99.69;100665.63;5222047;28;20957;-47
2023/07/16 04:33:32;;;;;;;2.60;1.20;;;20.00;99.90;;;20.35;99.46;100663.88;5219110;28;20041;-47
2023/07/16 04:36:05;;;;;;;4.32;0.90;;;20.00;99.90;;;20.33;99.49;100667.41;5221689;28;20057;-46
2023/07/16 04:38:37;;;;;;;3.67;1.05;;;20.00;99.90;;;20.35;99.43;100680.66;5232040;28;20048;-47
2023/07/16 04:41:10;;;;;;;2.58;1.13;;;20.00;99.90;;;20.35;99.45;100679.78;5219003;28;20106;-47
2023/07/16 04:43:42;;;;;;;2.25;1.08;;;20.00;99.90;;;20.37;99.15;100680.63;5221535;28;20037;-47
2023/07/16 04:46:16;;;;;;;2.40;1.10;;;20.00;99.90;;;20.36;99.01;100692.09;5223301;28;20559;-47
2023/07/16 04:48:50;;;;;;;3.08;1.33;;;20.00;99.90;;;20.38;99.06;100695.63;5226889;28;20045;-47
2023/07/16 04:51:22;;;;;;;2.92;1.20;;;20.00;99.90;;;20.40;98.64;100699.13;5234645;28;20052;-47
2023/07/16 04:53:57;;;;;;;4.65;1.10;;;20.00;99.90;;;20.44;98.50;100703.50;5221401;28;20062;-47
2023/07/16 04:56:30;;;;;;;4.55;1.30;;;20.10;99.90;;;20.50;98.40;100708.81;5232338;28;20052;-47
2023/07/16 04:59:02;;;;;;;2.92;1.10;;;20.10;99.90;;;20.68;97.43;100703.38;5221234;28;20044;-46
2023/07/16 05:01:34;;;;;;;3.60;1.33;;;20.20;99.90;;;20.90;96.51;100712.00;5220716;28;20049;-47
2023/07/16 05:04:08;;;;;;;4.60;1.20;;;20.40;99.90;;;21.19;95.96;100708.19;5221181;28;20049;-47
2023/07/16 05:06:41;;;;;;;3.75;1.20;;;20.70;99.90;;;21.44;94.54;100712.38;5221265;28;20514;-49
2023/07/16 05:09:14;;;;;;;2.75;1.27;;;20.90;99.60;;;21.68;92.63;100713.88;5221733;28;20045;-46
2023/07/16 05:11:46;;;;;;;2.90;1.10;;;21.10;98.90;;;21.91;91.88;100727.75;5221128;28;20037;-47
2023/07/16 05:14:18;;;;;;;4.43;1.40;;;21.30;98.60;;;22.07;90.08;100724.88;5221723;28;20055;-48
2023/07/16 05:16:51;;;;;;;3.92;1.35;;;21.50;97.90;;;22.15;90.10;100731.00;5222372;28;20041;-48
2023/07/16 05:19:25;;;;;;;3.60;1.20;;;21.60;97.90;;;22.25;89.15;100735.28;5221789;28;20045;-47
2023/07/16 05:22:00;;;;;;;4.25;1.27;;;21.70;97.50;;;22.36;88.88;100729.81;5214064;28;20041;-48
2023/07/16 05:24:33;;;;;;;2.88;1.30;;;21.80;97.30;;;22.46;87.48;100737.63;5221435;28;20045;-48
2023/07/16 05:27:06;;;;;;;3.58;1.20;;;21.90;96.80;;;22.60;87.21;100741.84;5221553;28;20707;-48
2023/07/16 05:29:39;;;;;;;6.90;1.75;;;22.00;96.70;;;22.75;85.77;100738.94;5220782;28;20041;-48
2023/07/16 05:32:14;;;;;;;6.07;2.10;;;22.20;96.20;;;22.85;84.14;100732.59;5219958;28;20418;-48
2023/07/16 05:34:48;;;;;;;3.20;1.38;;;22.20;95.50;;;23.01;83.82;100742.06;5220182;28;20044;-49
2023/07/16 05:37:20;;;;;;;5.15;1.33;;;22.40;95.30;;;23.17;82.70;100739.16;5220180;28;20045;-48
2023/07/16 05:39:53;;;;;;;4.68;1.50;;;22.60;94.90;;;23.32;82.31;100741.53;5220090;28;20037;-48
2023/07/16 05:42:25;;;;;;;3.55;1.23;;;22.70;94.60;;;23.50;82.00;100748.31;5228423;28;20044;-48
2023/07/16 05:44:57;;;;;;;3.90;1.30;;;22.80;94.40;;;23.67;81.04;100742.66;5213480;28;20052;-48
2023/07/16 05:47:30;;;;;;;5.40;1.30;;;23.00;94.00;;;23.80;80.62;100752.19;5220927;28;20060;-47
2023/07/16 05:50:09;;;;;;;5.57;1.52;;;23.10;93.70;;;23.93;79.13;100756.34;5221121;28;20040;-48
2023/07/16 05:52:41;;;;;;;2.58;1.30;;;23.20;93.10;;;24.09;77.98;100752.44;5220404;28;20052;-49
2023/07/16 05:55:14;;;;;;;6.15;1.70;;;23.40;92.70;;;24.17;77.46;100756.72;5221263;28;20060;-48
2023/07/16 05:57:46;;;;;;;4.43;1.20;;;23.40;92.30;;;24.23;76.97;100759.25;5220526;28;20063;-48
2023/07/16 06:00:19;;;;;;;5.82;1.55;;;23.50;92.10;;;24.28;76.98;100763.56;5221280;28;20060;-49
2023/07/16 06:02:51;;;;;;;4.40;1.60;;;23.60;91.90;;;24.36;74.90;100761.63;5227262;28;20513;-49
2023/07/16 06:05:26;;;;;;;5.97;2.03;;;23.70;90.90;;;24.47;74.37;100766.75;5227937;28;20132;-48
2023/07/16 06:08:02;;;;;;;5.90;1.90;;;23.70;90.60;;;24.54;73.80;100763.00;5225475;28;20049;-48
2023/07/16 06:10:35;;;;;;;4.40;1.55;;;23.80;90.30;;;24.70;74.49;100763.50;5224577;28;20532;-48
2023/07/16 06:13:08;;;;;;;3.00;1.60;;;24.00;90.50;;;24.88;73.38;100778.19;5227044;28;20140;-48
2023/07/16 06:15:40;;;;;;;6.38;2.15;;;24.10;90.00;;;24.94;72.03;100769.19;5244640;28;20057;-47
2023/07/16 06:18:13;;;;;;;3.83;1.65;;;24.20;88.30;;;25.00;72.16;100769.91;5227770;28;20045;-48
2023/07/16 06:20:47;;;;;;;3.20;1.65;;;24.20;88.20;;;25.14;71.47;100766.91;5227334;28;20056;-48
2023/07/16 06:23:19;;;;;;;4.80;1.77;;;24.40;88.20;;;25.19;70.74;100770.34;5227969;28;20069;-48
2023/07/16 06:25:55;;;;;;;4.40;1.80;;;24.40;86.40;;;25.17;69.50;100777.53;5227401;28;20538;-49
2023/07/16 06:28:28;;;;;;;3.78;2.00;;;24.40;84.90;;;25.13;69.48;100775.84;5227426;28;20045;-48
2023/07/16 06:31:01;;;;;;;6.22;2.17;;;24.40;84.40;;;25.25;69.73;100780.84;5227446;28;20060;-48
2023/07/16 06:33:33;;;;;;;5.95;2.30;;;24.50;85.00;;;25.39;69.76;100777.81;5227486;28;20053;-48
2023/07/16 06:36:07;;;;;;;6.00;1.80;;;24.60;84.90;;;25.55;69.84;100787.16;5227632;28;20076;-49
2023/07/16 06:38:39;;;;;;;5.72;1.73;;;24.80;84.90;;;25.56;67.82;100782.69;5226600;28;20033;-47
2023/07/16 06:41:12;;;;;;;4.72;2.00;;;24.80;82.40;;;25.48;68.53;100790.91;5227216;28;20060;-48
2023/07/16 06:43:44;;;;;;;5.60;2.30;;;24.80;82.90;;;25.42;68.49;100788.41;5227103;28;20465;-48
2023/07/16 06:46:16;;;;;;;5.68;2.00;;;24.70;82.60;;;25.43;68.20;100779.50;5227769;28;20526;-47
2023/07/16 06:48:50;;;;;;;5.53;1.80;;;24.70;82.10;;;25.36;69.14;100785.91;5211181;28;20061;-47
2023/07/16 06:51:24;;;;;;;3.90;1.75;;;24.70;82.80;;;25.20;69.48;100776.56;5227753;28;20537;-47
2023/07/16 06:53:56;;;;;;;5.80;1.80;;;24.50;82.50;;;25.02;69.65;100784.06;5227622;28;20049;-46
2023/07/16 06:56:28;;;;;;;3.28;1.55;;;24.40;82.90;;;24.96;70.20;100788.66;5228105;28;20072;-46
2023/07/16 06:59:01;;;;;;;5.25;1.80;;;24.30;83.40;;;24.95;70.02;100784.25;5211522;28;20045;-47
2023/07/16 07:01:33;;;;;;;3.67;1.60;;;24.20;83.10;;;24.97;69.76;100791.28;5227168;28;20510;-46
2023/07/16 07:04:08;;;;;;;6.53;1.80;;;24.20;83.10;;;25.00;70.01;100788.56;5227567;28;20531;-46
2023/07/16 07:06:42;;;;;;;6.30;2.70;;;24.20;83.40;;;25.00;68.83;100796.56;5227365;28;20410;-46
2023/07/16 07:09:15;;;;;;;3.42;1.75;;;24.20;82.20;;;25.01;69.73;100790.31;5227709;28;20049;-47
2023/07/16 07:11:47;;;;;;;5.40;1.88;;;24.20;82.90;;;24.99;68.70;100789.47;5226945;28;20055;-47
2023/07/16 07:14:19;;;;;;;2.95;1.63;;;24.20;81.70;;;25.08;68.38;100791.06;5223451;28;20063;-47
2023/07/16 07:16:52;;;;;;;3.45;1.90;;;24.30;81.50;;;25.24;69.03;100799.59;5224060;28;20047;-47
2023/07/16 07:19:24;;;;;;;3.45;1.80;;;24.40;82.00;;;25.41;67.94;100797.31;5224151;28;20045;-47
2023/07/16 07:21:58;;;;;;;4.78;1.88;;;24.50;81.40;;;25.57;67.54;100801.34;5223869;28;20073;-47
2023/07/16 07:24:30;;;;;;;4.22;2.25;;;24.70;80.70;;;25.69;66.42;100797.44;5224486;28;20743;-47
2023/07/16 07:27:03;;;;;;;3.95;1.98;;;24.80;80.40;;;25.76;65.78;100798.22;5223991;28;20133;-47
2023/07/16 07:29:35;;;;;;;3.78;1.80;;;24.90;78.80;;;25.80;65.31;100795.41;5223931;28;20056;-47
2023/07/16 07:32:11;;;;;;;6.65;2.10;;;24.90;78.20;;;25.85;64.86;100789.94;5223750;28;20056;-48
2023/07/16 07:34:43;;;;;;;4.75;1.92;;;24.90;77.60;;;25.92;65.70;100788.84;5223694;28;20513;-47
2023/07/16 07:37:17;;;;;;;5.38;1.85;;;25.00;78.30;;;25.95;66.57;100778.97;5240455;28;20064;-47
2023/07/16 07:39:53;;;;;;;4.53;1.90;;;25.10;79.00;;;26.00;65.78;100783.28;5223727;28;20072;-47
2023/07/16 07:42:26;;;;;;;4.78;2.03;;;25.10;78.40;;;26.05;65.62;100781.34;5223917;28;20124;-46
2023/07/16 07:44:59;;;;;;;6.25;2.30;;;25.20;78.30;;;26.17;63.65;100784.53;5223609;28;20072;-47
2023/07/16 07:47:31;;;;;;;3.72;1.92;;;25.20;76.50;;;26.30;63.66;100789.53;5222931;28;20053;-47
2023/07/16 07:50:04;;;;;;;3.53;1.70;;;25.30;76.50;;;26.38;62.92;100784.81;5222201;28;20045;-47
2023/07/16 07:52:37;;;;;;;4.65;1.92;;;25.40;75.60;;;26.47;62.14;100795.25;5223078;28;20045;-47
2023/07/16 07:55:10;;;;;;;4.53;2.15;;;25.50;74.80;;;26.64;61.89;100794.72;5223042;28;20053;-47
2023/07/16 07:57:43;;;;;;;4.07;1.90;;;25.60;74.50;;;26.79;61.04;100792.44;5222302;28;20072;-48
2023/07/16 08:00:19;;;;;;;2.85;1.63;;;25.70;74.00;;;26.91;59.89;100792.97;5222642;28;20048;-48
2023/07/16 08:02:51;;;;;;;6.32;2.05;;;25.80;72.90;;;27.03;60.28;100790.75;5222227;28;20048;-48
2023/07/16 08:05:24;;;;;;;5.55;2.22;;;25.90;73.30;;;27.13;59.53;100798.53;5223073;28;20502;-47
2023/07/16 08:07:57;;;;;;;3.97;2.13;;;26.00;72.20;;;27.11;59.33;100800.34;5223012;28;20057;-47
2023/07/16 08:10:30;;;;;;;4.00;2.03;;;25.90;71.90;;;27.25;59.55;100793.59;5223031;28;20316;-47
2023/07/16 08:13:02;;;;;;;4.35;2.13;;;26.00;72.50;;;27.49;58.13;100801.72;5222696;28;20049;-47
2023/07/16 08:15:35;;;;;;;3.90;2.25;;;26.10;71.30;;;27.78;57.31;100806.97;5223273;28;20053;-47
2023/07/16 08:18:07;;;;;;;4.45;2.25;;;26.30;70.80;;;28.05;56.04;100802.38;5222458;28;20052;-47
2023/07/16 08:20:40;;;;;;;3.83;2.15;;;26.40;69.70;;;28.43;55.44;100797.41;5222542;28;20041;-47
2023/07/16 08:23:14;;;;;;;6.75;2.30;;;26.60;69.60;;;28.96;54.59;100806.94;5223288;28;20103;-47
2023/07/16 08:25:46;;;;;;;6.25;2.40;;;26.90;69.10;;;29.59;52.63;100818.59;5223113;28;20522;-46
2023/07/16 08:28:22;;;;;;;3.88;1.90;;;27.20;68.20;;;30.24;51.70;100804.03;5223127;28;20041;-48
2023/07/16 08:30:54;;;;;;;5.20;2.05;;;27.60;67.10;;;30.63;50.73;100812.00;5223233;28;20056;-47
2023/07/16 08:33:27;;;;;;;4.65;2.38;;;27.90;66.50;;;31.15;49.87;100812.16;5239348;28;20519;-48
2023/07/16 08:35:59;;;;;;;5.38;2.42;;;28.10;66.20;;;31.80;48.40;100820.53;5222871;28;20049;-49
2023/07/16 08:38:33;;;;;;;6.10;2.45;;;28.40;64.90;;;32.28;46.92;100810.75;5222708;28;20045;-50
2023/07/16 08:41:05;;;;;;;;;;;28.60;63.50;;;32.96;45.11;100814.13;5223391;28;20526;-48
2023/07/16 08:43:37;;;;;;;5.32;2.63;;;29.00;61.80;;;34.07;43.67;100808.34;5222771;28;19921;-49
2023/07/16 08:46:10;;;;;;;3.88;2.05;;;29.60;61.10;;;35.10;42.49;100806.16;5202287;28;20095;-50
2023/07/16 08:48:42;;;;;;;3.83;2.38;;;30.40;60.20;;;35.92;40.93;100820.41;5218930;28;20060;-50
2023/07/16 08:51:16;;;;;;;5.07;2.63;;;31.20;58.40;;;36.72;39.46;100815.56;5222770;28;20048;-49
2023/07/16 08:53:50;;;;;;;4.22;2.22;;;32.00;56.30;;;37.32;37.86;100828.22;5222455;28;20132;-49
2023/07/16 08:56:22;;;;;;;3.33;2.03;;;32.70;54.30;;;37.71;37.46;100821.56;5222737;28;20045;-51
2023/07/16 08:58:56;;;;;;;4.00;2.33;;;33.20;53.20;;;37.92;36.50;100830.75;5222759;28;20408;-48
2023/07/16 09:01:29;;;;;;;4.85;2.05;;;33.60;52.10;;;37.87;36.41;100835.69;5222883;28;20045;-52
2023/07/16 09:04:01;;;;;;;3.75;2.25;;;33.70;50.90;;;37.94;35.69;100833.34;5222638;28;20422;-52
2023/07/16 09:06:34;;;;;;;4.13;2.10;;;33.90;50.30;;;37.88;35.28;100831.97;5222733;28;20044;-52
2023/07/16 09:09:07;;;;;;;3.72;2.20;;;33.90;49.50;;;37.81;35.46;100827.16;5222764;28;20052;-50
2023/07/16 09:11:48;;;;;;;4.32;1.92;;;33.80;49.70;;;37.88;35.05;100829.25;5222337;28;20053;-52
2023/07/16 09:14:20;;;;;;;3.20;2.10;;;33.90;49.00;;;37.96;35.74;100826.81;5222477;28;20052;-49
2023/07/16 09:16:54;;;;;;;3.88;2.10;;;33.90;49.60;;;38.21;35.20;100823.00;5220935;28;20045;-49
2023/07/16 09:19:27;;;;;;;3.40;2.00;;;34.00;49.30;;;38.41;35.20;100829.56;5221929;28;20036;-48
2023/07/16 09:21:59;;;;;;;4.38;2.00;;;34.20;49.40;;;38.40;35.24;100830.53;5221491;28;20052;-49
2023/07/16 09:24:33;;;;;;;2.92;1.92;;;34.20;49.10;;;38.39;35.31;100831.53;5221757;28;20037;-50
2023/07/16 09:27:06;;;;;;;3.10;2.00;;;34.30;49.00;;;37.85;35.29;100831.38;5221326;28;20053;-49
2023/07/16 09:29:39;;;;;;;3.17;2.00;;;34.20;48.70;;;37.21;36.46;100832.59;5221316;28;20072;-49
2023/07/16 09:32:12;;;;;;;3.97;1.70;;;33.90;49.20;;;36.62;37.21;100826.22;5220990;28;20049;-51
2023/07/16 09:34:44;;;;;;;4.07;1.80;;;33.60;49.50;;;35.95;38.35;100831.06;5222071;28;20422;-49
2023/07/16 09:37:19;;;;;;;5.82;1.90;;;33.30;49.90;;;34.78;39.39;100822.69;5221009;28;20049;-49
2023/07/16 09:39:53;;;;;;;3.08;1.70;;;32.70;50.50;;;34.03;40.49;100815.78;5221950;28;20087;-47
2023/07/16 09:42:29;;;;;;;2.33;1.35;;;32.20;51.00;;;33.19;41.14;100832.56;5221407;28;20541;-48
2023/07/16 09:45:02;;;;;;;4.50;1.75;;;31.60;51.00;;;32.44;42.39;100821.59;5221858;28;20245;-49
2023/07/16 09:47:35;;;;;;;4.05;1.85;;;31.10;51.80;;;31.87;43.36;100830.03;5221466;28;20045;-48
2023/07/16 09:50:08;;;;;;;4.38;1.67;;;30.70;52.40;;;31.45;44.37;100825.94;5221653;28;20041;-48
2023/07/16 09:52:42;;;;;;;3.97;2.10;;;30.30;53.10;;;31.13;44.79;100816.75;5220831;28;20410;-49
2023/07/16 09:55:17;;;;;;;2.55;1.33;;;30.00;53.40;;;30.69;45.68;100818.94;5219333;28;20044;-47
2023/07/16 09:57:50;;;;;;;3.28;1.70;;;29.70;54.30;;;30.49;46.01;100822.56;5221956;28;20521;-50
2023/07/16 10:00:24;;;;;;;3.88;1.85;;;29.40;54.50;;;30.32;45.35;100830.53;5221748;28;20033;-48
2023/07/16 10:02:56;;;;;;;;;;;29.30;54.10;;;29.96;45.86;100834.81;5222219;28;20052;-48
2023/07/16 10:05:29;;;;;;;3.40;1.80;;;29.00;54.40;;;29.88;47.21;100823.56;5221759;28;20341;-47
2023/07/16 10:08:02;;;;;;;3.45;1.52;;;28.90;55.50;;;29.88;46.77;100823.56;5221499;28;20056;-49
2023/07/16 10:10:45;;;;;;;3.65;1.75;;;28.80;55.30;;;29.93;46.77;100829.59;5238155;28;20053;-47
2023/07/16 10:13:18;;;;;;;3.80;1.77;;;28.80;55.40;;;29.91;46.34;100828.78;5221248;28;20044;-49
2023/07/16 10:15:55;;;;;;;2.67;1.48;;;28.80;55.00;;;29.78;47.45;100824.91;5221445;28;20056;-49
2023/07/16 10:18:33;;;;;;;4.63;1.77;;;28.80;55.70;;;29.75;47.18;100830.41;5238208;28;20506;-47
2023/07/16 10:21:08;;;;;;;6.03;1.80;;;28.70;55.90;;;29.62;47.25;100824.72;5238262;28;20510;-49
2023/07/16 10:23:41;;;;;;;2.80;1.70;;;28.70;55.80;;;29.44;48.20;100818.28;5221125;28;20048;-48
2023/07/16 10:26:17;;;;;;;3.38;1.60;;;28.50;56.30;;;29.42;47.79;100817.50;5221173;28;20037;-48
2023/07/16 10:28:52;;;;;;;2.65;1.60;;;28.40;56.20;;;29.46;48.04;100827.13;5220987;28;20398;-47
2023/07/16 10:31:26;;;;;;;3.63;1.50;;;28.40;56.50;;;29.58;47.00;100827.59;5221070;28;20517;-48
2023/07/16 10:34:04;;;;;;;2.92;1.42;;;28.50;55.90;;;29.69;47.71;100838.75;5221185;28;20072;-48
2023/07/16 10:36:40;;;;;;;3.90;1.45;;;28.60;56.20;;;29.81;47.90;100827.47;5220856;28;20045;-48
2023/07/16 10:39:12;;;;;;;3.42;1.50;;;28.70;56.50;;;30.05;47.52;100828.16;5222300;28;20490;-48